Share

Curtis, NE (69025)

McCook Municipal (KMCK) Elev 2579 ft | 40.20 °N, 100.59 °W | Change Station

Current weather conditions updated 50 minutes ago

Clear
Clear
50 °F
Feels Like 50 °F
N
10
Wind Variable Wind from SSW
Sunrise 7:00 AM
Sunset 8:23 PM
Moon Waning Gibbous

Today is forecast to be Much Cooler than yesterday.

Pressure 30.27 in
Visibility 10.0 miles
Clouds Clear
Dew Point 31 °F
Humidity 48%
Rainfall 0.00 in
Snow Depth Not available.
UV 9 out of 16
Pollen 9.10 out of 12
Air Quality Not available.
Flu Activity Sporadic
METAR KMCK 171953Z AUTO 20009KT 160V220 10SM CLR 10/M01 A3023 RMK AO2 SLP248 T01001006 PWINO PNO $

More Conditions Fewer Conditions

Pressure 30.27 in
Visibility 10.0 miles
Clouds Clear
Dew Point 31 °F
Humidity 48%
Rainfall 0.00 in
Snow Depth Not available.
UV 9 out of 16
Pollen 9.10 out of 12
Air Quality Not available.
Flu Activity Sporadic
METAR KMCK 171953Z AUTO 20009KT 160V220 10SM CLR 10/M01 A3023 RMK AO2 SLP248 T01001006 PWINO PNO $

More Conditions Fewer Conditions

10-Day Forecast

Almanac

Astronomy

Apr. 17, 2014 Rise Set
Actual Time 7:00 AM CDT 8:23 PM CDT
Civil Twilight 6:31 AM CDT 8:52 PM CDT
Nautical Twilight 5:57 AM CDT 9:26 PM CDT
Astronomical Twilight 5:21 AM CDT 10:02 PM CDT
Moon 11:11 PM CDT 8:33 AM CDT
Length of Visible Light 14h 20m
Length of Day
13h 23m
Tomorrow will be 2m 32s longer.
Waning Gibbous, 92% of the Moon is Illuminated
Today
Waning Gibbous
Apr 22
Last Quarter
Apr 29
New
May 6
First Quarter
May 14
Full

Today's Extremes

State Highs State Lows

Community

  • Morning Light
    Morning Light
  • New Day
    New Day
  • Lake Michigan Sunrise
    Lake Michigan Sunrise
  • sunset from izmir, narlıdere
    sunset from izmir, narlıdere
  • oregon cherry
    oregon cherry

WunderPhotos

Upload Photos

1,702,123 photos uploaded!

Nearby

Snow Depth

Station Depth Elevation
No new snow has been reported.

Coastal Water Temperatures

Place Temperature
No Stations Reporting

Earthquake Activity

City Distance Mag. Time & Date
No recent earthquake activity has been reported nearby.
Minimum magnitude displayed is 2.5.

Nearby Weather Stations

There are no personal weather stations in this area.

What do you think?

We're not finished. Please let us know what you like, what you don't like, and what you are still missing.